createdAt,value
2022-12-20T00:00:33.560Z,97775.16
2022-12-20T00:01:35.537Z,97769.91
2022-12-20T00:02:37.440Z,97772.50
2022-12-20T00:03:39.524Z,97776.69
2022-12-20T00:04:41.340Z,97769.91
2022-12-20T00:05:43.907Z,97767.56
2022-12-20T00:06:45.758Z,97776.13
2022-12-20T00:07:47.491Z,97776.94
2022-12-20T00:08:53.690Z,97780.44
2022-12-20T00:09:55.616Z,97774.25
2022-12-20T00:10:59.970Z,97775.88
2022-12-20T00:12:01.957Z,97779.25
2022-12-20T00:13:03.791Z,97774.94
2022-12-20T00:14:05.851Z,97775.88
2022-12-20T00:15:07.735Z,97775.16
2022-12-20T00:16:09.568Z,97765.84
2022-12-20T00:17:11.297Z,97766.88
2022-12-20T00:18:13.138Z,97771.13
2022-12-20T00:19:16.181Z,97769.72
2022-12-20T00:20:18.025Z,97765.53
2022-12-20T00:21:20.394Z,97768.09
2022-12-20T00:22:22.189Z,97759.44
2022-12-20T00:23:24.059Z,97759.44
2022-12-20T00:24:27.219Z,97758.75
2022-12-20T00:25:29.039Z,97752.91
2022-12-20T00:26:32.813Z,97752.34
2022-12-20T00:27:34.537Z,97750.59
2022-12-20T00:28:37.318Z,97753.97
2022-12-20T00:29:39.161Z,97752.09
2022-12-20T00:30:40.952Z,97758.06
2022-12-20T00:31:42.802Z,97756.44
2022-12-20T00:32:45.346Z,97757.13
2022-12-20T00:33:48.710Z,97751.28
2022-12-20T00:34:50.590Z,97756.31
2022-12-20T00:35:52.691Z,97747.78
2022-12-20T00:36:54.431Z,97746.16
2022-12-20T00:37:56.177Z,97743.69
2022-12-20T00:38:58.534Z,97744.75
2022-12-20T00:40:00.533Z,97745.69
2022-12-20T00:41:05.423Z,97750.81
2022-12-20T00:42:07.340Z,97739.03
2022-12-20T00:43:09.241Z,97747.66
2022-12-20T00:44:11.287Z,97742.53
2022-12-20T00:45:14.416Z,97746.06
2022-12-20T00:46:17.174Z,97744.56
2022-12-20T00:47:19.042Z,97746.66
2022-12-20T00:48:21.100Z,97747.00
2022-12-20T00:49:22.826Z,97752.16
2022-12-20T00:50:24.837Z,97742.69
2022-12-20T00:51:28.256Z,97742.69
2022-12-20T00:52:30.051Z,97737.81
2022-12-20T00:53:31.859Z,97739.91
2022-12-20T00:54:33.889Z,97744.34
2022-12-20T00:55:35.864Z,97743.41
2022-12-20T00:56:37.630Z,97740.97
2022-12-20T00:57:39.373Z,97745.03
2022-12-20T00:58:42.082Z,97736.25
2022-12-20T00:59:43.907Z,97743.16
2022-12-20T01:00:49.171Z,97751.56
2022-12-20T01:01:55.900Z,97750.50
2022-12-20T01:02:58.016Z,97753.91
2022-12-20T01:04:00.118Z,97745.25
2022-12-20T01:05:01.909Z,97747.81
2022-12-20T01:06:03.775Z,97754.59
2022-12-20T01:07:05.601Z,97747.72
2022-12-20T01:08:07.507Z,97757.19
2022-12-20T01:09:10.350Z,97753.91
2022-12-20T01:10:12.284Z,97755.78
2022-12-20T01:11:17.950Z,97758.34
2022-12-20T01:12:19.749Z,97754.13
2022-12-20T01:13:22.259Z,97759.28
2022-12-20T01:14:24.072Z,97760.06
2022-12-20T01:15:25.889Z,97763.50
2022-12-20T01:16:29.889Z,97760.78
2022-12-20T01:17:31.775Z,97762.53
2022-12-20T01:18:33.543Z,97759.16
2022-12-20T01:19:35.373Z,97758.09
2022-12-20T01:20:37.092Z,97748.63
2022-12-20T01:21:44.921Z,97757.28
2022-12-20T01:22:47.846Z,97754.84
2022-12-20T01:23:50.101Z,97762.66
2022-12-20T01:24:51.832Z,97765.09
2022-12-20T01:25:53.598Z,97763.34
2022-12-20T01:26:55.483Z,97766.75
2022-12-20T01:27:57.204Z,97768.38
2022-12-20T01:29:00.082Z,97760.66
2022-12-20T01:30:01.926Z,97747.81
2022-12-20T01:31:06.534Z,97755.53
2022-12-20T01:32:09.337Z,97748.56
2022-12-20T01:33:11.109Z,97748.56
2022-12-20T01:34:12.999Z,97746.09
2022-12-20T01:35:16.502Z,97753.91
2022-12-20T01:36:22.624Z,97754.59
2022-12-20T01:37:24.395Z,97752.72
2022-12-20T01:38:26.650Z,97756.94
2022-12-20T01:39:28.399Z,97764.41
2022-12-20T01:40:30.296Z,97765.09
2022-12-20T01:41:33.255Z,97753.00
2022-12-20T01:42:35.135Z,97762.31
2022-12-20T01:43:50.983Z,97751.94
2022-12-20T01:44:56.898Z,97749.09
2022-12-20T01:45:58.759Z,97735.56
2022-12-20T01:47:00.642Z,97741.88
2022-12-20T01:48:02.514Z,97737.91
2022-12-20T01:49:07.375Z,97739.69
2022-12-20T01:50:09.605Z,97743.88
2022-12-20T01:51:11.804Z,97744.69
2022-12-20T01:52:19.048Z,97742.94
2022-12-20T01:53:23.658Z,97739.69
2022-12-20T01:54:28.745Z,97745.50
2022-12-20T01:55:30.650Z,97742.00
2022-12-20T01:56:32.511Z,97742.72
2022-12-20T01:58:00.907Z,97743.63
2022-12-20T01:59:02.858Z,97739.31
2022-12-20T02:00:05.463Z,97752.84
2022-12-20T02:01:07.288Z,97746.91
2022-12-20T02:02:11.598Z,97749.59
2022-12-20T02:03:14.531Z,97748.06
2022-12-20T02:04:17.280Z,97744.13
2022-12-20T02:05:20.408Z,97751.13
2022-12-20T02:06:24.493Z,97751.34
2022-12-20T02:07:30.827Z,97747.84
2022-12-20T02:08:32.677Z,97746.19
2022-12-20T02:09:36.278Z,97751.34
2022-12-20T02:10:53.239Z,97743.78
2022-12-20T02:12:21.504Z,97749.03
2022-12-20T02:13:38.170Z,97742.38
2022-12-20T02:14:51.387Z,97740.63
2022-12-20T02:15:58.004Z,97738.88
2022-12-20T02:17:05.724Z,97741.31
2022-12-20T02:18:10.687Z,97734.44
2022-12-20T02:19:31.036Z,97744.69
2022-12-20T02:20:38.860Z,97739.44
2022-12-20T02:21:46.532Z,97739.34
2022-12-20T02:22:51.814Z,97740.16
2022-12-20T02:24:09.096Z,97742.72
2022-12-20T02:25:29.693Z,97744.59
2022-12-20T02:26:46.449Z,97737.00
2022-12-20T02:28:03.743Z,97735.94
2022-12-20T02:29:21.112Z,97732.56
2022-12-20T02:30:25.478Z,97730.78
2022-12-20T02:31:35.565Z,97735.22
2022-12-20T02:32:53.170Z,97731.97
2022-12-20T02:33:56.120Z,97730.34
2022-12-20T02:34:57.935Z,97731.28
2022-12-20T02:35:59.786Z,97736.41
2022-12-20T02:37:01.611Z,97738.06
2022-12-20T02:38:22.187Z,97731.16
2022-12-20T02:39:26.251Z,97731.06
2022-12-20T02:40:30.221Z,97725.31
2022-12-20T02:41:44.444Z,97723.13
2022-12-20T02:42:46.743Z,97713.66
2022-12-20T02:44:08.565Z,97712.59
2022-12-20T02:45:17.132Z,97708.41
2022-12-20T02:46:20.301Z,97710.03
2022-12-20T02:47:25.698Z,97714.25
2022-12-20T02:48:29.309Z,97707.47
2022-12-20T02:49:32.896Z,97713.44
2022-12-20T02:50:40.358Z,97715.88
2022-12-20T02:51:43.827Z,97714.84
2022-12-20T02:52:45.728Z,97721.59
2022-12-20T02:53:47.616Z,97724.97
2022-12-20T02:54:49.566Z,97722.66
2022-12-20T02:55:54.842Z,97724.25
2022-12-20T02:57:09.997Z,97727.69
2022-12-20T02:58:20.370Z,97724.25
2022-12-20T02:59:25.140Z,97726.13
2022-12-20T03:00:33.381Z,97725.22
2022-12-20T03:01:38.557Z,97722.66
2022-12-20T03:03:00.024Z,97717.41
2022-12-20T03:04:03.334Z,97716.44
2022-12-20T03:05:05.816Z,97707.84
2022-12-20T03:06:07.773Z,97704.44
2022-12-20T03:07:11.960Z,97715.66
2022-12-20T03:08:14.263Z,97716.00
2022-12-20T03:09:16.075Z,97710.19
2022-12-20T03:10:18.414Z,97716.94
2022-12-20T03:11:20.731Z,97714.25
2022-12-20T03:12:22.528Z,97710.72
2022-12-20T03:13:24.884Z,97709.00
2022-12-20T03:14:26.744Z,97713.28
2022-12-20T03:15:28.557Z,97703.72
2022-12-20T03:16:30.424Z,97709.00
2022-12-20T03:17:32.304Z,97709.81
2022-12-20T03:18:35.365Z,97715.66
2022-12-20T03:19:37.168Z,97712.13
2022-12-20T03:20:39.248Z,97705.13
2022-12-20T03:21:41.176Z,97715.66
2022-12-20T03:22:43.095Z,97703.72
2022-12-20T03:23:46.421Z,97698.59
2022-12-20T03:24:48.182Z,97698.59
2022-12-20T03:25:50.049Z,97702.09
2022-12-20T03:26:51.905Z,97696.16
2022-12-20T03:27:53.767Z,97688.31
2022-12-20T03:28:56.441Z,97691.59
2022-12-20T03:29:58.257Z,97699.06
2022-12-20T03:31:00.163Z,97692.16
2022-12-20T03:32:01.948Z,97688.91
2022-12-20T03:33:03.771Z,97693.94
2022-12-20T03:34:06.505Z,97694.75
2022-12-20T03:35:08.580Z,97684.59
2022-12-20T03:36:10.351Z,97687.84
2022-12-20T03:37:12.184Z,97686.94
2022-12-20T03:38:14.069Z,97687.63
2022-12-20T03:39:16.263Z,97691.13
2022-12-20T03:40:18.136Z,97691.13
2022-12-20T03:41:21.578Z,97688.44
2022-12-20T03:42:23.400Z,97692.97
2022-12-20T03:43:25.274Z,97694.63
2022-12-20T03:44:27.192Z,97695.56
2022-12-20T03:45:29.072Z,97690.66
2022-12-20T03:46:31.066Z,97695.81
2022-12-20T03:47:33.213Z,97689.03
2022-12-20T03:48:35.042Z,97688.31
2022-12-20T03:49:36.821Z,97681.00
2022-12-20T03:50:38.611Z,97684.97
2022-12-20T03:51:40.411Z,97696.16
2022-12-20T03:52:42.280Z,97691.16
2022-12-20T03:53:44.019Z,97695.34
2022-12-20T03:54:45.818Z,97692.69
2022-12-20T03:55:47.631Z,97690.91
2022-12-20T03:56:49.560Z,97683.22
2022-12-20T03:57:51.497Z,97685.78
2022-12-20T03:58:53.324Z,97683.22
2022-12-20T03:59:55.127Z,97683.09
2022-12-20T04:00:57.758Z,97677.28
2022-12-20T04:02:00.610Z,97684.72
2022-12-20T04:03:02.824Z,97684.72
2022-12-20T04:04:05.284Z,97681.09
2022-12-20T04:05:07.304Z,97681.25
2022-12-20T04:06:09.195Z,97683.81
2022-12-20T04:07:11.409Z,97683.91
2022-12-20T04:08:13.240Z,97688.25
2022-12-20T04:09:15.244Z,97696.06
2022-12-20T04:10:17.136Z,97688.56
2022-12-20T04:11:19.471Z,97690.44
2022-12-20T04:12:21.265Z,97700.81
2022-12-20T04:13:23.122Z,97693.97
2022-12-20T04:14:24.927Z,97693.25
2022-12-20T04:15:26.766Z,97694.06
2022-12-20T04:16:29.513Z,97697.44
2022-12-20T04:17:31.413Z,97705.94
2022-12-20T04:18:33.225Z,97695.69
2022-12-20T04:19:35.137Z,97698.25
2022-12-20T04:20:37.081Z,97695.81
2022-12-20T04:21:38.885Z,97694.88
2022-12-20T04:22:40.700Z,97696.53
2022-12-20T04:23:43.566Z,97697.34
2022-12-20T04:24:45.526Z,97689.63
2022-12-20T04:25:47.448Z,97689.75
2022-12-20T04:26:49.782Z,97684.88
2022-12-20T04:27:51.638Z,97691.88
2022-12-20T04:28:53.473Z,97679.94
2022-12-20T04:29:57.955Z,97679.94
2022-12-20T04:31:01.442Z,97683.22
2022-12-20T04:32:03.289Z,97681.72
2022-12-20T04:33:05.088Z,97685.91
2022-12-20T04:34:07.040Z,97690.09
2022-12-20T04:35:09.085Z,97685.09
2022-12-20T04:36:11.041Z,97679.03
2022-12-20T04:37:13.490Z,97678.88
2022-12-20T04:38:15.336Z,97682.16
2022-12-20T04:39:17.141Z,97682.16
2022-12-20T04:40:19.050Z,97677.50
2022-12-20T04:41:23.764Z,97673.31
2022-12-20T04:42:26.231Z,97674.22
2022-12-20T04:43:28.127Z,97679.38
2022-12-20T04:44:29.883Z,97673.69
2022-12-20T04:45:31.712Z,97680.53
2022-12-20T04:46:33.555Z,97675.53
2022-12-20T04:47:35.409Z,97673.69
2022-12-20T04:48:56.363Z,97680.53
2022-12-20T04:49:59.451Z,97672.50
2022-12-20T04:51:01.261Z,97679.97
2022-12-20T04:52:22.954Z,97682.88
2022-12-20T04:53:43.306Z,97688.59
2022-12-20T04:54:45.210Z,97683.47
2022-12-20T04:55:47.020Z,97685.09
2022-12-20T04:56:48.804Z,97681.81
2022-12-20T04:57:50.634Z,97690.31
2022-12-20T04:58:53.380Z,97680.91
2022-12-20T04:59:55.169Z,97681.13
2022-12-20T05:00:57.013Z,97682.41
2022-12-20T05:01:58.867Z,97674.69
2022-12-20T05:03:01.452Z,97680.44
2022-12-20T05:04:03.622Z,97684.50
2022-12-20T05:05:05.687Z,97680.22
2022-12-20T05:06:07.873Z,97676.69
2022-12-20T05:07:09.798Z,97686.97
2022-12-20T05:08:11.865Z,97676.69
2022-12-20T05:09:13.728Z,97686.97
2022-12-20T05:10:15.511Z,97680.22
2022-12-20T05:11:17.370Z,97682.63
2022-12-20T05:12:19.176Z,97678.34
2022-12-20T05:13:21.008Z,97682.53
2022-12-20T05:14:23.252Z,97678.19
2022-12-20T05:15:25.155Z,97672.97
2022-12-20T05:16:27.015Z,97676.22
2022-12-20T05:17:28.837Z,97676.22
2022-12-20T05:18:30.760Z,97678.91
2022-12-20T05:19:33.544Z,97671.44
2022-12-20T05:20:35.519Z,97675.63
2022-12-20T05:21:55.869Z,97667.72
2022-12-20T05:23:16.493Z,97676.22
2022-12-20T05:24:36.585Z,97674.34
2022-12-20T05:25:57.837Z,97670.03
2022-12-20T05:27:00.164Z,97674.94
2022-12-20T05:28:02.448Z,97666.44
2022-12-20T05:29:04.658Z,97669.94
2022-12-20T05:30:06.673Z,97673.44
2022-12-20T05:31:08.659Z,97669.94
2022-12-20T05:32:10.650Z,97680.31
2022-12-20T05:33:13.013Z,97674.34
2022-12-20T05:34:14.983Z,97675.16
2022-12-20T05:35:17.349Z,97675.06
2022-12-20T05:36:19.413Z,97673.44
2022-12-20T05:37:21.371Z,97678.56
2022-12-20T05:38:23.900Z,97676.94
2022-12-20T05:39:26.237Z,97677.88
2022-12-20T05:40:28.042Z,97680.44
2022-12-20T05:41:29.769Z,97683.22
2022-12-20T05:42:31.732Z,97685.78
2022-12-20T05:43:34.002Z,97683.47
2022-12-20T05:44:35.779Z,97679.38
2022-12-20T05:45:37.644Z,97675.06
2022-12-20T05:46:39.489Z,97677.75
2022-12-20T05:47:41.424Z,97680.31
2022-12-20T05:48:43.231Z,97678.66
2022-12-20T05:49:45.259Z,97681.94
2022-12-20T05:50:47.761Z,97686.38
2022-12-20T05:51:49.648Z,97687.16
2022-12-20T05:52:52.641Z,97683.09
2022-12-20T05:53:54.436Z,97686.72
2022-12-20T05:54:56.634Z,97684.38
2022-12-20T05:55:59.275Z,97678.69
2022-12-20T05:57:01.555Z,97681.00
2022-12-20T05:58:03.539Z,97685.19
2022-12-20T05:59:05.362Z,97689.47
2022-12-20T06:00:07.713Z,97685.03
2022-12-20T06:01:10.813Z,97684.03
2022-12-20T06:02:12.768Z,97682.03
2022-12-20T06:03:15.817Z,97684.47
2022-12-20T06:04:17.935Z,97684.38
2022-12-20T06:05:20.372Z,97684.03
2022-12-20T06:06:22.205Z,97679.50
2022-12-20T06:07:24.497Z,97682.66
2022-12-20T06:08:26.381Z,97682.50
2022-12-20T06:09:28.249Z,97673.19
2022-12-20T06:10:30.015Z,97673.31
2022-12-20T06:11:31.791Z,97670.38
2022-12-20T06:12:33.580Z,97663.63
2022-12-20T06:13:35.476Z,97669.34
2022-12-20T06:14:37.309Z,97669.13
2022-12-20T06:15:39.867Z,97676.47
2022-12-20T06:16:41.815Z,97673.09
2022-12-20T06:17:43.813Z,97683.34
2022-12-20T06:18:45.641Z,97677.38
2022-12-20T06:19:47.669Z,97673.91
2022-12-20T06:20:53.031Z,97667.13
2022-12-20T06:21:54.853Z,97662.00
2022-12-20T06:22:56.695Z,97668.75
2022-12-20T06:23:58.540Z,97662.56
2022-12-20T06:25:00.323Z,97659.78
2022-12-20T06:26:02.180Z,97661.31
2022-12-20T06:27:03.910Z,97664.56
2022-12-20T06:28:06.485Z,97660.13
2022-12-20T06:29:10.485Z,97665.16
2022-12-20T06:30:12.742Z,97659.91
2022-12-20T06:31:14.647Z,97659.06
2022-12-20T06:32:16.530Z,97659.22
2022-12-20T06:33:18.307Z,97659.06
2022-12-20T06:34:20.791Z,97658.28
2022-12-20T06:35:22.675Z,97654.91
2022-12-20T06:36:24.501Z,97653.25
2022-12-20T06:37:26.282Z,97659.44
2022-12-20T06:38:28.265Z,97657.13
2022-12-20T06:39:30.099Z,97656.38
2022-12-20T06:40:31.947Z,97658.84
2022-12-20T06:41:33.757Z,97656.28
2022-12-20T06:42:35.818Z,97658.84
2022-12-20T06:43:37.660Z,97665.50
2022-12-20T06:44:39.586Z,97655.13
2022-12-20T06:45:42.924Z,97651.63
2022-12-20T06:46:45.049Z,97654.41
2022-12-20T06:47:46.836Z,97648.47
2022-12-20T06:48:48.717Z,97657.22
2022-12-20T06:49:50.549Z,97648.13
2022-12-20T06:50:56.160Z,97647.28
2022-12-20T06:51:58.348Z,97651.63
2022-12-20T06:53:00.234Z,97650.91
2022-12-20T06:54:02.039Z,97646.59
2022-12-20T06:55:04.271Z,97651.72
2022-12-20T06:56:06.244Z,97648.25
2022-12-20T06:57:08.239Z,97650.91
2022-12-20T06:58:10.120Z,97656.84
2022-12-20T06:59:11.980Z,97648.47
2022-12-20T07:00:14.114Z,97646.84
2022-12-20T07:01:15.920Z,97637.50
2022-12-20T07:02:17.923Z,97639.03
2022-12-20T07:03:20.004Z,97633.06
2022-12-20T07:04:22.281Z,97633.06
2022-12-20T07:05:24.147Z,97636.34
2022-12-20T07:06:27.268Z,97638.00
2022-12-20T07:07:29.756Z,97631.22
2022-12-20T07:08:31.757Z,97627.94
2022-12-20T07:09:35.458Z,97637.41
2022-12-20T07:10:37.868Z,97637.50
2022-12-20T07:11:39.719Z,97640.06
2022-12-20T07:12:47.435Z,97640.78
2022-12-20T07:13:50.602Z,97644.03
2022-12-20T07:14:52.456Z,97640.66
2022-12-20T07:15:58.231Z,97644.03
2022-12-20T07:17:00.299Z,97631.69
2022-12-20T07:18:02.249Z,97642.63
2022-12-20T07:19:04.225Z,97643.34
2022-12-20T07:20:13.213Z,97639.03
2022-12-20T07:21:17.453Z,97641.47
2022-12-20T07:22:19.278Z,97643.13
2022-12-20T07:23:21.248Z,97647.44
2022-12-20T07:24:23.114Z,97646.38
2022-12-20T07:25:25.795Z,97646.38
2022-12-20T07:26:27.910Z,97646.38
2022-12-20T07:27:29.768Z,97647.06
2022-12-20T07:28:31.656Z,97641.00
2022-12-20T07:29:33.441Z,97644.28
2022-12-20T07:30:35.324Z,97636.72
2022-12-20T07:31:37.260Z,97638.22
2022-12-20T07:32:39.095Z,97638.00
2022-12-20T07:33:41.013Z,97629.25
2022-12-20T07:34:43.569Z,97623.06
2022-12-20T07:35:53.966Z,97631.56
2022-12-20T07:36:56.261Z,97619.56
2022-12-20T07:37:58.067Z,97623.84
2022-12-20T07:38:59.914Z,97616.75
2022-12-20T07:40:02.054Z,97615.00
2022-12-20T07:41:08.441Z,97619.91
2022-12-20T07:42:10.244Z,97625.63
2022-12-20T07:43:12.140Z,97623.84
2022-12-20T07:44:14.020Z,97627.00
2022-12-20T07:45:15.990Z,97621.50
2022-12-20T07:46:18.320Z,97627.34
2022-12-20T07:47:20.192Z,97626.28
2022-12-20T07:48:22.335Z,97633.88
2022-12-20T07:49:24.144Z,97628.63
2022-12-20T07:50:28.184Z,97630.50
2022-12-20T07:51:32.448Z,97627.66
2022-12-20T07:52:35.028Z,97626.06
2022-12-20T07:53:39.385Z,97628.50
2022-12-20T07:54:44.080Z,97625.81
2022-12-20T07:55:46.296Z,97627.34
2022-12-20T07:56:51.771Z,97633.97
2022-12-20T07:57:56.788Z,97632.31
2022-12-20T07:59:00.980Z,97633.16
2022-12-20T08:00:04.240Z,97631.41
2022-12-20T08:01:06.198Z,97628.72
2022-12-20T08:02:20.863Z,97630.44
2022-12-20T08:03:26.874Z,97634.66
2022-12-20T08:04:31.193Z,97629.53
2022-12-20T08:05:34.153Z,97632.09
2022-12-20T08:06:36.867Z,97625.47
2022-12-20T08:07:41.789Z,97626.16
2022-12-20T08:08:46.884Z,97626.00
2022-12-20T08:09:48.906Z,97620.88
2022-12-20T08:10:51.078Z,97618.31
2022-12-20T08:11:53.639Z,97621.56
2022-12-20T08:12:56.783Z,97618.19
2022-12-20T08:13:58.732Z,97616.44
2022-12-20T08:15:00.825Z,97616.44
2022-12-20T08:16:02.629Z,97619.69
2022-12-20T08:17:04.590Z,97624.72
2022-12-20T08:18:06.723Z,97617.81
2022-12-20T08:19:08.561Z,97632.53
2022-12-20T08:20:10.555Z,97624.03
2022-12-20T08:21:13.410Z,97625.69
2022-12-20T08:22:15.326Z,97621.09
2022-12-20T08:23:17.161Z,97619.47
2022-12-20T08:24:19.128Z,97620.06
2022-12-20T08:25:21.948Z,97614.78
2022-12-20T08:26:23.756Z,97612.91
2022-12-20T08:27:25.621Z,97608.59
2022-12-20T08:28:27.431Z,97616.03
2022-12-20T08:29:29.262Z,97611.59
2022-12-20T08:30:31.075Z,97615.94
2022-12-20T08:31:33.052Z,97613.13
2022-12-20T08:32:36.451Z,97607.75
2022-12-20T08:33:39.160Z,97605.06
2022-12-20T08:34:41.060Z,97605.88
2022-12-20T08:35:42.844Z,97608.31
2022-12-20T08:36:44.719Z,97602.13
2022-12-20T08:37:46.597Z,97602.56
2022-12-20T08:38:48.446Z,97601.50
2022-12-20T08:39:50.323Z,97597.88
2022-12-20T08:40:52.124Z,97600.44
2022-12-20T08:41:53.981Z,97598.56
2022-12-20T08:42:55.911Z,97601.13
2022-12-20T08:43:57.785Z,97598.44
2022-12-20T08:45:00.890Z,97597.38
2022-12-20T08:46:03.102Z,97596.44
2022-12-20T08:47:04.880Z,97596.19
2022-12-20T08:48:06.940Z,97591.63
2022-12-20T08:49:08.877Z,97593.25
2022-12-20T08:50:10.935Z,97596.88
2022-12-20T08:51:12.886Z,97589.31
2022-12-20T08:52:14.845Z,97589.44
2022-12-20T08:53:16.649Z,97585.78
2022-12-20T08:54:18.447Z,97588.81
2022-12-20T08:55:27.545Z,97581.91
2022-12-20T08:56:31.432Z,97584.09
2022-12-20T08:57:33.297Z,97582.91
2022-12-20T08:58:35.725Z,97589.41
2022-12-20T08:59:37.615Z,97580.63
2022-12-20T09:00:39.560Z,97584.84
2022-12-20T09:01:41.546Z,97576.19
2022-12-20T09:02:43.604Z,97577.56
2022-12-20T09:03:47.921Z,97575.44
2022-12-20T09:04:49.847Z,97578.44
2022-12-20T09:05:52.876Z,97570.47
2022-12-20T09:06:54.684Z,97577.78
2022-12-20T09:07:56.526Z,97567.38
2022-12-20T09:09:00.655Z,97575.66
2022-12-20T09:10:03.487Z,97561.72
2022-12-20T09:11:06.623Z,97570.13
2022-12-20T09:12:08.427Z,97569.06
2022-12-20T09:13:10.831Z,97565.44
2022-12-20T09:14:12.626Z,97560.13
2022-12-20T09:15:14.518Z,97562.59
2022-12-20T09:16:17.823Z,97559.09
2022-12-20T09:17:19.647Z,97558.00
2022-12-20T09:18:21.440Z,97558.56
2022-12-20T09:19:23.326Z,97559.13
2022-12-20T09:20:25.913Z,97558.84
2022-12-20T09:21:27.932Z,97562.22
2022-12-20T09:22:30.319Z,97558.59
2022-12-20T09:23:32.713Z,97558.44
2022-12-20T09:24:34.526Z,97557.53
2022-12-20T09:25:37.743Z,97556.44
2022-12-20T09:26:41.067Z,97553.19
2022-12-20T09:27:42.956Z,97551.41
2022-12-20T09:28:44.902Z,97553.75
2022-12-20T09:29:46.807Z,97544.00
2022-12-20T09:30:48.727Z,97546.31
2022-12-20T09:31:50.605Z,97546.97
2022-12-20T09:32:52.617Z,97548.50
2022-12-20T09:33:55.802Z,97541.59
2022-12-20T09:34:57.560Z,97553.38
2022-12-20T09:35:59.985Z,97550.81
2022-12-20T09:37:01.812Z,97543.06
2022-12-20T09:38:03.847Z,97554.06
2022-12-20T09:39:05.728Z,97555.53
2022-12-20T09:40:12.068Z,97557.06
2022-12-20T09:41:23.150Z,97549.19
2022-12-20T09:42:26.726Z,97554.34
2022-12-20T09:43:28.676Z,97549.88
2022-12-20T09:44:31.965Z,97558.28
2022-12-20T09:45:37.103Z,97553.00
2022-12-20T09:46:39.591Z,97550.41
2022-12-20T09:47:42.286Z,97544.34
2022-12-20T09:48:44.965Z,97545.94
2022-12-20T09:49:49.703Z,97540.69
2022-12-20T09:51:00.553Z,97546.63
2022-12-20T09:52:21.254Z,97543.25
2022-12-20T09:53:40.980Z,97539.59
2022-12-20T09:55:01.462Z,97534.31
2022-12-20T09:56:10.638Z,97529.72
2022-12-20T09:57:27.520Z,97536.47
2022-12-20T09:58:47.645Z,97532.00
2022-12-20T09:59:50.145Z,97530.78
2022-12-20T10:00:54.571Z,97525.81
2022-12-20T10:01:58.384Z,97526.59
2022-12-20T10:03:14.307Z,97522.38
2022-12-20T10:04:21.633Z,97522.38
2022-12-20T10:05:40.602Z,97519.81
2022-12-20T10:06:54.158Z,97516.31
2022-12-20T10:08:04.411Z,97514.16
2022-12-20T10:09:12.055Z,97514.28
2022-12-20T10:10:23.150Z,97506.81
2022-12-20T10:11:54.927Z,97503.97
2022-12-20T10:13:11.267Z,97507.75
2022-12-20T10:14:34.873Z,97509.09
2022-12-20T10:15:41.644Z,97516.16
2022-12-20T10:16:46.511Z,97507.50
2022-12-20T10:17:57.619Z,97511.56
2022-12-20T10:19:18.192Z,97513.16
2022-12-20T10:20:38.560Z,97516.44
2022-12-20T10:21:46.469Z,97506.66
2022-12-20T10:22:56.081Z,97508.84
2022-12-20T10:24:02.152Z,97507.22
2022-12-20T10:25:16.258Z,97501.13
2022-12-20T10:26:18.114Z,97491.63
2022-12-20T10:27:21.218Z,97492.31
2022-12-20T10:28:28.171Z,97496.34
2022-12-20T10:29:29.995Z,97500.56
2022-12-20T10:30:33.306Z,97495.13
2022-12-20T10:31:36.400Z,97493.22
2022-12-20T10:32:38.372Z,97487.13
2022-12-20T10:33:40.871Z,97486.84
2022-12-20T10:35:02.984Z,97487.25
2022-12-20T10:36:24.280Z,97487.63
2022-12-20T10:37:28.022Z,97486.41
2022-12-20T10:38:43.665Z,97488.72
2022-12-20T10:39:48.319Z,97481.91
2022-12-20T10:41:20.677Z,97486.00
2022-12-20T10:42:25.902Z,97484.78
2022-12-20T10:43:28.833Z,97473.38
2022-12-20T10:44:30.936Z,97479.06
2022-12-20T10:45:36.646Z,97478.09
2022-12-20T10:46:40.452Z,97484.72
2022-12-20T10:47:45.178Z,97479.56
2022-12-20T10:48:49.016Z,97472.94
2022-12-20T10:49:50.916Z,97473.91
2022-12-20T10:51:17.021Z,97458.56
2022-12-20T10:52:18.982Z,97463.41
2022-12-20T10:53:23.166Z,97464.41
2022-12-20T10:54:29.117Z,97453.09
2022-12-20T10:55:35.880Z,97454.63
2022-12-20T10:56:37.941Z,97449.47
2022-12-20T10:57:42.401Z,97452.03
2022-12-20T10:58:51.806Z,97450.94
2022-12-20T10:59:58.079Z,97451.47
2022-12-20T11:01:16.436Z,97444.41
2022-12-20T11:02:30.286Z,97444.25
2022-12-20T11:03:50.269Z,97450.09
2022-12-20T11:05:18.733Z,97453.63
2022-12-20T11:06:21.722Z,97449.25
2022-12-20T11:07:26.214Z,97438.41
2022-12-20T11:09:56.047Z,97439.78
2022-12-20T11:11:13.398Z,97432.19
2022-12-20T11:12:16.703Z,97431.06
2022-12-20T11:13:23.483Z,97428.63
2022-12-20T11:14:25.532Z,97429.47
2022-12-20T11:15:34.065Z,97423.34
2022-12-20T11:16:38.374Z,97420.75
2022-12-20T11:17:47.702Z,97419.81
2022-12-20T11:18:57.337Z,97425.91
2022-12-20T11:20:18.006Z,97422.66
2022-12-20T11:21:34.650Z,97421.19
2022-12-20T11:22:37.767Z,97417.78
2022-12-20T11:23:42.914Z,97417.09
2022-12-20T11:24:59.723Z,97411.59
2022-12-20T11:26:20.467Z,97420.00
2022-12-20T11:27:33.835Z,97411.81
2022-12-20T11:28:45.281Z,97410.75
2022-12-20T11:30:02.937Z,97401.22
2022-12-20T11:31:20.016Z,97398.50
2022-12-20T11:32:24.931Z,97401.75
2022-12-20T11:33:45.520Z,97401.47
2022-12-20T11:35:10.552Z,97400.88
2022-12-20T11:36:19.234Z,97398.03
2022-12-20T11:37:25.665Z,97407.25
2022-12-20T11:38:46.228Z,97400.84
2022-12-20T11:40:06.844Z,97398.53
2022-12-20T11:41:18.730Z,97395.44
2022-12-20T11:42:48.536Z,97397.88
2022-12-20T11:44:25.433Z,97403.03
2022-12-20T11:45:36.001Z,97401.69
2022-12-20T11:46:49.231Z,97392.47
2022-12-20T11:48:03.347Z,97393.00
2022-12-20T11:49:14.435Z,97391.91
2022-12-20T11:50:35.628Z,97386.47
2022-12-20T11:51:47.702Z,97389.03
2022-12-20T11:52:55.649Z,97384.81
2022-12-20T11:54:11.144Z,97382.56
2022-12-20T11:55:12.870Z,97383.22
2022-12-20T11:56:17.837Z,97381.31
2022-12-20T11:57:48.364Z,97375.84
2022-12-20T11:59:03.594Z,97377.91
2022-12-20T12:00:06.884Z,97372.59
2022-12-20T12:01:14.145Z,97370.69
2022-12-20T12:02:35.974Z,97367.00
2022-12-20T12:03:40.124Z,97362.66
2022-12-20T12:04:45.458Z,97355.19
2022-12-20T12:05:49.365Z,97362.28
2022-12-20T12:06:58.803Z,97355.19
2022-12-20T12:08:04.211Z,97355.72
2022-12-20T12:09:14.693Z,97352.19
2022-12-20T12:10:19.368Z,97355.41
2022-12-20T12:12:48.484Z,97348.06
2022-12-20T12:13:50.878Z,97346.00
2022-12-20T12:15:00.283Z,97347.63
2022-12-20T12:16:06.687Z,97341.19
2022-12-20T12:17:18.610Z,97341.59
2022-12-20T12:18:22.064Z,97344.97
2022-12-20T12:19:25.293Z,97338.34
2022-12-20T12:20:36.999Z,97339.16
2022-12-20T12:21:41.128Z,97339.28
2022-12-20T12:22:44.639Z,97329.28
2022-12-20T12:24:06.013Z,97330.22
2022-12-20T12:25:12.290Z,97333.63
2022-12-20T12:26:25.440Z,97339.47
2022-12-20T12:27:28.301Z,97330.88
2022-12-20T12:28:30.231Z,97325.72
2022-12-20T12:29:33.646Z,97322.72
2022-12-20T12:30:41.261Z,97328.69
2022-12-20T12:31:46.050Z,97325.97
2022-12-20T12:32:50.736Z,97319.03
2022-12-20T12:34:08.999Z,97315.63
2022-12-20T12:35:16.644Z,97315.19
2022-12-20T12:36:39.224Z,97322.78
2022-12-20T12:37:41.003Z,97315.97
2022-12-20T12:38:55.645Z,97310.03
2022-12-20T12:40:01.909Z,97307.13
2022-12-20T12:41:03.711Z,97301.97
2022-12-20T12:42:06.190Z,97300.22
2022-12-20T12:43:15.173Z,97302.13
2022-12-20T12:44:32.438Z,97304.72